Time;durP1;ratioP1;P1;durP2;ratioP2;P2;SDS_P1;SDS_P2;PMS_P1;PMS_P2;Temp;Humidity;BMP_temperature;BMP_pressure;BME280_temperature;BME280_humidity;BME280_pressure;Samples;Min_cycle;Max_cycle;Signal;HPM_P1;HPM_P2
2022/10/09 00:01:12;;;;;;;8.13;4.97;;;14.10;91.20;;;14.57;58.31;99516.09;4954820;28;106515;-69
2022/10/09 00:03:42;;;;;;;9.40;4.20;;;14.20;91.30;;;14.56;58.47;99506.13;4968771;28;107095;-69
2022/10/09 00:06:12;;;;;;;9.37;4.90;;;14.10;91.30;;;14.60;58.52;99508.25;4968654;28;124517;-69
2022/10/09 00:08:42;;;;;;;10.20;4.93;;;14.10;91.30;;;14.64;58.24;99509.25;4966647;28;123723;-69
2022/10/09 00:11:19;;;;;;;5.93;4.13;;;14.10;91.30;;;14.67;58.48;99509.44;4968308;28;107542;-69
2022/10/09 00:13:46;;;;;;;7.73;4.20;;;14.20;91.30;;;14.69;58.18;99506.31;4957474;28;107530;-69
2022/10/09 00:16:15;;;;;;;9.00;4.30;;;14.20;91.30;;;14.70;58.07;99506.00;4966474;28;124291;-69
2022/10/09 00:18:42;;;;;;;6.80;4.30;;;14.20;91.20;;;14.70;57.89;99507.97;4954077;28;122946;-69
2022/10/09 00:21:32;;;;;;;5.13;3.37;;;14.20;91.20;;;14.69;58.12;99497.97;4961755;28;106576;-69
2022/10/09 00:24:01;;;;;;;7.53;3.97;;;14.30;91.30;;;14.71;58.24;99504.03;4966818;28;107613;-68
2022/10/09 00:26:28;;;;;;;12.43;4.70;;;14.30;91.30;;;14.71;57.91;99501.25;4968697;28;124195;-69
2022/10/09 00:28:55;;;;;;;8.37;4.10;;;14.30;91.30;;;14.73;58.22;99507.31;4966903;28;123888;-69
2022/10/09 00:31:21;;;;;;;7.00;3.40;;;14.40;91.30;;;14.74;58.11;99497.81;4970109;28;107384;-69
2022/10/09 00:33:48;;;;;;;10.40;4.83;;;14.30;91.30;;;14.75;58.04;99499.47;4964678;28;107518;-69
2022/10/09 00:36:21;;;;;;;8.80;4.00;;;14.30;91.30;;;14.76;58.07;99496.34;4961621;28;123944;-69
2022/10/09 00:38:49;;;;;;;8.47;4.20;;;14.30;91.30;;;14.74;57.91;99495.84;4966848;28;123754;-69
2022/10/09 00:41:23;;;;;;;7.27;4.30;;;14.40;91.30;;;14.75;57.94;99503.06;4967476;28;107428;-69
2022/10/09 00:43:59;;;;;;;6.73;3.87;;;14.30;91.30;;;14.74;57.98;99495.84;4969093;28;107216;-70
2022/10/09 00:46:36;;;;;;;5.90;3.97;;;14.30;91.30;;;14.71;58.09;99487.34;4965113;28;124542;-69
2022/10/09 00:49:28;;;;;;;7.20;3.70;;;14.20;91.30;;;14.66;57.86;99484.72;4969473;28;124312;-70
2022/10/09 00:51:59;;;;;;;9.57;5.10;;;14.20;91.30;;;14.65;58.10;99485.88;4965676;28;107538;-69
2022/10/09 00:54:30;;;;;;;6.63;4.00;;;14.20;91.40;;;14.64;58.17;99479.50;4966670;28;107203;-69
2022/10/09 00:56:57;;;;;;;7.20;4.10;;;14.20;91.40;;;14.64;58.02;99484.22;4967603;28;126152;-68
2022/10/09 00:59:24;;;;;;;9.00;4.50;;;14.20;91.60;;;14.62;58.01;99478.97;4966583;28;124048;-69
2022/10/09 01:01:51;;;;;;;8.00;4.37;;;14.20;91.30;;;14.60;58.23;99478.47;4968079;28;107355;-69
2022/10/09 01:04:18;;;;;;;10.87;5.27;;;14.20;91.60;;;14.55;58.02;99485.00;4967250;28;107690;-69
2022/10/09 01:07:08;;;;;;;9.20;5.57;;;14.10;91.30;;;14.48;58.18;99479.06;4964897;28;123275;-68
2022/10/09 01:10:01;;;;;;;6.13;4.37;;;14.00;91.40;;;14.42;58.32;99472.00;4964493;28;124297;-68
2022/10/09 01:12:34;;;;;;;12.03;4.97;;;14.00;91.40;;;14.40;58.27;99476.25;4964773;28;106818;-69
2022/10/09 01:15:33;;;;;;;4.90;3.50;;;13.90;91.40;;;14.30;58.38;99472.63;4964009;28;106709;-69
2022/10/09 01:18:14;;;;;;;6.87;4.40;;;13.90;91.50;;;14.27;58.57;99478.00;4960653;28;123849;-69
2022/10/09 01:20:51;;;;;;;7.63;3.67;;;13.80;91.50;;;14.24;58.45;99464.72;4967234;28;124578;-69
2022/10/09 01:23:50;;;;;;;6.77;3.83;;;13.80;91.50;;;14.19;58.46;99464.91;4965878;28;107685;-69
2022/10/09 01:27:17;;;;;;;7.00;4.00;;;13.70;91.50;;;14.10;58.62;99457.34;4965875;28;107271;-69
2022/10/09 01:29:48;;;;;;;7.67;4.80;;;13.70;91.50;;;14.08;58.88;99465.16;4947431;28;123226;-69
2022/10/09 01:32:23;;;;;;;11.03;4.87;;;13.70;91.60;;;14.05;58.73;99463.03;4960188;28;124135;-69
2022/10/09 01:34:51;;;;;;;6.07;4.03;;;13.60;91.60;;;14.03;59.04;99462.53;4945178;28;107295;-69
2022/10/09 01:37:20;;;;;;;9.10;4.43;;;13.60;91.60;;;14.04;58.63;99455.81;4950378;28;107810;-69
2022/10/09 01:39:48;;;;;;;7.20;3.80;;;13.60;91.70;;;14.04;58.84;99458.59;4961160;28;124221;-69
2022/10/09 01:42:17;;;;;;;4.93;3.57;;;13.60;91.70;;;14.06;58.75;99455.50;4949694;28;123113;-69
2022/10/09 01:44:43;;;;;;;6.80;4.23;;;13.60;91.70;;;14.05;58.87;99451.91;4949855;28;107346;-69
2022/10/09 01:47:15;;;;;;;8.90;3.97;;;13.70;91.80;;;14.02;58.99;99446.97;4957762;28;107262;-69
2022/10/09 01:49:45;;;;;;;7.17;4.43;;;13.60;91.80;;;13.95;59.03;99446.63;4964929;28;123675;-68
2022/10/09 01:52:38;;;;;;;8.30;3.63;;;13.50;91.70;;;13.89;58.98;99447.91;4965371;28;124356;-68
2022/10/09 01:55:43;;;;;;;9.17;3.53;;;13.40;91.80;;;13.83;59.21;99440.84;4953966;28;107131;-68
2022/10/09 01:58:41;;;;;;;6.10;3.93;;;13.40;91.90;;;13.74;59.36;99440.78;4948987;28;106997;-68
2022/10/09 02:01:18;;;;;;;7.10;4.57;;;13.30;91.90;;;13.68;59.48;99439.28;4959035;28;124516;-68
2022/10/09 02:03:49;;;;;;;17.80;5.03;;;13.30;92.00;;;13.61;59.62;99433.38;4967462;28;124934;-68
2022/10/09 02:06:18;;;;;;;5.67;3.50;;;13.30;92.10;;;13.60;59.69;99428.97;4961698;28;107247;-69
2022/10/09 02:08:50;;;;;;;5.93;3.87;;;13.20;92.10;;;13.57;59.88;99433.19;4962652;28;107120;-69
2022/10/09 02:11:17;;;;;;;6.67;3.90;;;13.10;92.20;;;13.54;59.91;99422.72;4948517;28;124260;-69
2022/10/09 02:13:45;;;;;;;5.70;3.60;;;13.10;92.20;;;13.55;59.71;99426.31;4965456;28;124347;-69
2022/10/09 02:16:16;;;;;;;4.80;3.30;;;13.30;92.30;;;13.57;59.94;99427.63;4964969;28;107566;-69
2022/10/09 02:18:57;;;;;;;5.10;3.40;;;13.10;92.20;;;13.61;59.73;99416.69;4960910;28;107048;-69
2022/10/09 02:21:53;;;;;;;6.03;3.70;;;13.10;92.20;;;13.59;59.64;99425.34;4964471;28;124763;-69
2022/10/09 02:24:22;;;;;;;6.90;3.80;;;13.10;92.20;;;13.54;59.87;99419.09;4968283;28;124108;-69
2022/10/09 02:26:51;;;;;;;6.63;4.00;;;13.10;92.20;;;13.55;59.65;99413.25;4964390;28;109099;-69
2022/10/09 02:29:18;;;;;;;4.90;3.63;;;13.10;92.20;;;13.56;59.83;99412.09;4952191;28;108486;-69
2022/10/09 02:31:44;;;;;;;4.40;3.37;;;13.10;92.20;;;13.59;59.72;99407.88;4951060;28;122932;-69
2022/10/09 02:34:16;;;;;;;7.50;3.60;;;13.10;92.20;;;13.62;59.67;99408.06;4966749;28;124280;-69
2022/10/09 02:36:42;;;;;;;5.80;3.47;;;13.10;92.20;;;13.63;59.67;99409.69;4966228;28;110220;-69
2022/10/09 02:39:09;;;;;;;6.20;3.50;;;13.10;92.20;;;13.65;59.51;99406.63;4959967;28;110886;-69
2022/10/09 02:41:36;;;;;;;6.77;4.20;;;13.20;92.20;;;13.65;59.48;99407.44;4967223;28;124042;-69
2022/10/09 02:44:04;;;;;;;5.10;3.70;;;13.30;92.20;;;13.66;59.41;99406.28;4960761;28;124483;-69
2022/10/09 02:46:32;;;;;;;5.87;3.70;;;13.30;92.20;;;13.65;59.54;99401.88;4969104;28;109219;-69
2022/10/09 02:48:59;;;;;;;5.07;3.47;;;13.20;92.10;;;13.66;59.38;99397.94;4968232;28;108684;-69
2022/10/09 02:51:26;;;;;;;6.17;3.77;;;13.20;92.10;;;13.66;59.26;99403.50;4963700;28;124318;-74
2022/10/09 02:53:53;;;;;;;5.20;3.50;;;13.20;92.10;;;13.65;59.41;99401.88;4963264;28;123842;-69
2022/10/09 02:56:21;;;;;;;7.43;4.10;;;13.20;92.10;;;13.64;59.31;99404.97;4962004;28;109485;-70
2022/10/09 02:58:48;;;;;;;5.70;3.33;;;13.10;92.10;;;13.64;59.49;99404.97;4962909;28;109018;-67
2022/10/09 03:01:14;;;;;;;5.93;3.40;;;13.60;92.30;;;13.63;59.42;99398.59;4965403;28;124892;-69
2022/10/09 03:03:41;;;;;;;4.40;3.03;;;13.20;92.10;;;13.62;59.41;99407.22;4972720;28;122780;-70
2022/10/09 03:06:15;;;;;;;5.13;3.27;;;13.20;92.20;;;13.61;59.28;99408.38;4967105;28;109465;-69
2022/10/09 03:08:45;;;;;;;8.57;4.20;;;13.10;92.10;;;13.58;59.81;99400.69;4967302;28;108795;-70
2022/10/09 03:11:13;;;;;;;5.57;3.30;;;13.20;92.20;;;13.55;59.38;99390.22;4964479;28;124537;-70
2022/10/09 03:13:41;;;;;;;9.03;3.53;;;13.10;92.10;;;13.54;59.42;99394.94;4963107;28;123829;-71
2022/10/09 03:16:19;;;;;;;7.10;3.40;;;13.10;92.10;;;13.55;59.44;99402.13;4967382;28;109328;-70
2022/10/09 03:18:47;;;;;;;8.63;3.90;;;13.10;92.10;;;13.55;59.29;99399.34;4965745;28;109355;-70
2022/10/09 03:21:21;;;;;;;4.10;3.13;;;13.10;92.10;;;13.54;59.14;99389.41;4950709;28;124478;-69
2022/10/09 03:23:48;;;;;;;4.97;3.63;;;13.20;92.10;;;13.53;59.38;99392.47;4963774;28;124321;-68
2022/10/09 03:26:19;;;;;;;3.63;2.87;;;13.10;92.10;;;13.52;59.08;99393.63;4965276;28;110990;-68
2022/10/09 03:28:47;;;;;;;6.87;4.17;;;13.10;92.30;;;13.49;59.27;99386.75;4964331;28;109935;-68
2022/10/09 03:31:17;;;;;;;6.33;3.40;;;13.00;92.00;;;13.47;59.01;99400.13;4968881;28;124115;-68
2022/10/09 03:33:43;;;;;;;4.50;3.17;;;13.00;92.00;;;13.46;58.96;99392.94;4966701;28;124360;-68
2022/10/09 03:36:10;;;;;;;6.20;3.30;;;13.00;92.00;;;13.43;59.17;99394.41;4967757;28;109729;-69
2022/10/09 03:38:37;;;;;;;4.63;2.70;;;13.00;92.00;;;13.42;59.11;99397.47;4961310;28;108894;-69
2022/10/09 03:41:05;;;;;;;5.43;3.53;;;13.00;91.90;;;13.39;58.96;99395.34;4967305;28;124116;-68
2022/10/09 03:43:32;;;;;;;5.00;3.10;;;13.00;91.90;;;13.36;59.04;99394.00;4969742;28;124297;-68
2022/10/09 03:46:03;;;;;;;4.83;3.10;;;12.90;91.80;;;13.35;59.04;99391.53;4966833;28;109200;-68
2022/10/09 03:48:29;;;;;;;7.07;3.77;;;13.20;92.00;;;13.33;58.94;99402.16;4968820;28;108931;-68
2022/10/09 03:50:56;;;;;;;5.50;3.50;;;13.00;91.90;;;13.30;58.89;99394.44;4966383;28;124278;-68
2022/10/09 03:53:22;;;;;;;4.23;3.03;;;12.90;91.80;;;13.28;59.17;99394.78;4969100;28;122924;-68
2022/10/09 03:55:49;;;;;;;4.23;2.90;;;12.90;91.80;;;13.24;58.92;99400.13;4966996;28;107926;-70
2022/10/09 03:58:15;;;;;;;6.40;3.87;;;12.80;91.80;;;13.19;59.01;99391.91;4969689;28;108893;-68
2022/10/09 04:00:44;;;;;;;5.10;3.30;;;12.90;91.80;;;13.12;59.07;99388.75;4965476;28;123851;-68
2022/10/09 04:03:11;;;;;;;4.77;3.43;;;12.70;91.80;;;13.10;59.16;99392.97;4971901;28;123823;-68
2022/10/09 04:05:38;;;;;;;7.43;3.80;;;12.70;91.90;;;13.06;59.19;99398.34;4966430;28;108944;-68
2022/10/09 04:08:04;;;;;;;10.60;4.10;;;12.60;92.10;;;13.02;59.39;99394.53;4964740;28;108831;-68
2022/10/09 04:10:31;;;;;;;5.67;3.50;;;12.60;91.90;;;13.00;59.44;99402.34;4966318;28;124021;-68
2022/10/09 04:12:57;;;;;;;4.90;3.83;;;12.60;91.90;;;12.97;59.32;99401.03;4968469;28;123770;-68
2022/10/09 04:15:24;;;;;;;4.73;3.83;;;12.50;91.90;;;12.96;59.37;99404.13;4966916;28;110100;-68
2022/10/09 04:17:50;;;;;;;6.10;3.90;;;12.50;91.90;;;12.93;59.60;99402.81;4962971;28;109960;-68
2022/10/09 04:20:19;;;;;;;8.07;3.40;;;12.50;92.00;;;12.93;59.36;99401.97;4967385;28;124174;-68
2022/10/09 04:22:45;;;;;;;6.73;3.90;;;12.50;92.00;;;12.88;59.08;99396.56;4969819;28;123602;-68
2022/10/09 04:25:12;;;;;;;4.80;3.50;;;12.50;92.10;;;12.80;59.65;99401.69;4966061;28;109282;-68
2022/10/09 04:27:38;;;;;;;7.40;4.10;;;12.30;92.00;;;12.77;59.52;99399.56;4971016;28;108029;-69
2022/10/09 04:30:07;;;;;;;5.87;3.57;;;12.30;92.10;;;12.76;59.70;99400.69;4965917;28;123209;-68
2022/10/09 04:32:37;;;;;;;6.60;3.60;;;12.30;92.10;;;12.74;59.74;99399.38;4969842;28;123779;-68
2022/10/09 04:35:05;;;;;;;6.33;3.60;;;12.30;92.10;;;12.73;59.90;99404.06;4965548;28;109832;-68
2022/10/09 04:37:31;;;;;;;6.37;3.90;;;12.30;92.20;;;12.71;59.95;99400.81;4966242;28;109030;-68
2022/10/09 04:39:58;;;;;;;9.53;4.30;;;12.30;92.20;;;12.67;59.93;99397.00;4968487;28;124056;-68
2022/10/09 04:42:24;;;;;;;5.17;3.73;;;12.20;92.10;;;12.63;59.84;99396.00;4963542;28;123905;-68
2022/10/09 04:44:51;;;;;;;7.67;3.50;;;12.20;92.20;;;12.62;59.78;99399.91;4962593;28;109493;-68
2022/10/09 04:47:17;;;;;;;6.90;3.60;;;12.20;92.20;;;12.60;59.98;99396.63;4967426;28;108994;-68
2022/10/09 04:49:44;;;;;;;8.93;3.87;;;12.20;92.20;;;12.55;60.02;99392.00;4961799;28;124099;-68
2022/10/09 04:52:10;;;;;;;7.00;4.00;;;12.10;92.20;;;12.53;60.09;99399.00;4965308;28;123787;-68
2022/10/09 04:54:36;;;;;;;7.10;3.40;;;12.10;92.20;;;12.50;60.03;99394.91;4965530;28;108890;-68
2022/10/09 04:57:03;;;;;;;6.47;3.17;;;13.20;92.80;;;12.50;60.27;99394.91;4965333;28;108650;-69
2022/10/09 04:59:32;;;;;;;5.47;3.77;;;12.00;92.30;;;12.50;59.97;99394.09;4967812;28;123957;-68
2022/10/09 05:02:00;;;;;;;6.03;3.40;;;12.00;92.30;;;12.50;60.07;99389.34;4959281;28;123614;-70
2022/10/09 05:04:26;;;;;;;9.47;4.03;;;12.20;92.40;;;12.51;60.29;99393.75;4964075;28;109315;-68
2022/10/09 05:06:53;;;;;;;5.87;3.60;;;12.10;92.40;;;12.53;60.08;99399.00;4959932;28;109608;-69
2022/10/09 05:09:19;;;;;;;9.50;3.37;;;12.10;92.40;;;12.53;60.39;99387.91;4965463;28;123217;-69
2022/10/09 05:11:47;;;;;;;6.27;3.67;;;12.10;92.40;;;12.54;60.23;99395.09;4961655;28;122980;-71
2022/10/09 05:14:13;;;;;;;5.80;3.50;;;12.00;92.30;;;12.54;60.25;99386.78;4959967;28;109223;-69
2022/10/09 05:16:40;;;;;;;4.77;3.33;;;12.10;92.30;;;12.54;60.14;99389.53;4963283;28;109045;-68
2022/10/09 05:19:06;;;;;;;5.40;3.20;;;12.10;92.30;;;12.52;60.09;99392.63;4964723;28;123822;-69
2022/10/09 05:21:35;;;;;;;4.50;2.80;;;12.10;92.40;;;12.52;60.18;99391.78;4957647;28;123594;-67
2022/10/09 05:24:02;;;;;;;8.73;3.63;;;12.10;92.30;;;12.53;60.12;99383.19;4952217;28;109169;-68
2022/10/09 05:26:28;;;;;;;5.27;3.00;;;12.00;92.30;;;12.54;60.07;99393.13;4962924;28;107972;-68
2022/10/09 05:28:55;;;;;;;6.30;3.73;;;12.20;92.40;;;12.55;60.19;99400.34;4967047;28;123231;-68
2022/10/09 05:31:27;;;;;;;5.10;3.27;;;12.10;92.40;;;12.55;59.92;99388.44;4952989;28;122869;-68
2022/10/09 05:33:57;;;;;;;5.00;3.27;;;12.10;92.40;;;12.55;60.02;99396.75;4962708;28;108961;-68
2022/10/09 05:36:24;;;;;;;7.83;3.50;;;12.10;92.30;;;12.54;59.88;99389.53;4965808;28;108951;-68
2022/10/09 05:38:50;;;;;;;6.00;3.17;;;12.10;92.30;;;12.53;59.88;99390.69;4956642;28;123964;-68
2022/10/09 05:41:18;;;;;;;6.37;3.70;;;12.10;92.30;;;12.53;60.05;99399.81;4954008;28;124120;-67
2022/10/09 05:43:47;;;;;;;4.00;3.13;;;12.00;92.30;;;12.53;59.96;99390.69;4958557;28;109088;-69
2022/10/09 05:46:23;;;;;;;5.67;3.13;;;12.10;92.30;;;12.52;59.79;99398.19;4966303;28;109095;-71
2022/10/09 05:49:05;;;;;;;6.77;2.57;;;12.00;92.20;;;12.49;59.45;99389.66;4963823;28;124104;-68
2022/10/09 05:51:37;;;;;;;5.80;3.30;;;12.00;92.20;;;12.45;59.75;99391.41;4965528;28;124171;-68
2022/10/09 05:54:05;;;;;;;5.77;3.50;;;11.90;92.10;;;12.43;59.46;99396.44;4961326;28;110169;-67
2022/10/09 05:56:35;;;;;;;7.60;3.60;;;12.00;92.10;;;12.43;59.49;99399.22;4959030;28;109884;-69
2022/10/09 05:59:08;;;;;;;4.70;3.33;;;11.90;92.00;;;12.38;59.54;99392.66;4963978;28;124090;-69
2022/10/09 06:01:40;;;;;;;6.30;3.30;;;12.00;92.10;;;12.33;59.67;99390.00;4954120;28;123652;-69
2022/10/09 06:04:13;;;;;;;5.07;3.60;;;11.90;92.00;;;12.26;59.60;99384.03;4963231;28;109093;-68
2022/10/09 06:06:40;;;;;;;6.50;3.90;;;11.80;92.00;;;12.24;59.74;99394.63;4962262;28;108094;-69
2022/10/09 06:09:09;;;;;;;6.53;3.47;;;11.80;92.00;;;12.24;59.72;99399.34;4952949;28;123882;-69
2022/10/09 06:11:38;;;;;;;5.50;3.73;;;11.80;92.00;;;12.25;59.49;99393.50;4962871;28;123731;-69
2022/10/09 06:14:08;;;;;;;5.90;2.90;;;12.10;92.50;;;12.23;59.51;99387.44;4953638;28;109041;-68
2022/10/09 06:16:38;;;;;;;10.87;4.40;;;11.80;92.00;;;12.23;59.34;99381.09;4963970;28;108539;-68
2022/10/09 06:19:06;;;;;;;6.30;3.50;;;11.70;92.10;;;12.24;59.49;99383.53;4948707;28;124112;-69
2022/10/09 06:21:33;;;;;;;9.10;3.70;;;11.80;92.10;;;12.27;59.48;99382.91;4968558;28;123449;-69
2022/10/09 06:24:02;;;;;;;6.70;3.93;;;11.70;92.10;;;12.35;59.51;99393.25;4954019;28;108851;-69
2022/10/09 06:26:30;;;;;;;4.40;3.00;;;11.80;92.20;;;12.43;59.27;99388.94;4959812;28;108982;-68
2022/10/09 06:28:59;;;;;;;5.07;3.27;;;11.90;92.20;;;12.50;59.98;99396.84;4956690;28;123842;-70
2022/10/09 06:31:29;;;;;;;4.33;3.33;;;11.90;92.40;;;12.63;60.66;99397.94;4951452;28;122784;-71
2022/10/09 06:33:59;;;;;;;10.30;3.60;;;12.00;92.80;;;12.79;60.98;99396.50;4958204;28;109346;-73
2022/10/09 06:36:29;;;;;;;4.60;3.00;;;12.10;93.00;;;12.96;60.32;99396.63;4967548;28;109177;-70
2022/10/09 06:38:58;;;;;;;9.53;3.30;;;12.20;93.00;;;13.11;60.09;99394.59;4954987;28;124046;-71
2022/10/09 06:41:27;;;;;;;6.10;3.20;;;12.30;93.10;;;13.29;59.84;99395.59;4952438;28;123031;-72
2022/10/09 06:44:01;;;;;;;6.10;3.23;;;12.50;93.10;;;13.44;59.37;99398.00;4954144;28;110135;-71
2022/10/09 06:46:35;;;;;;;12.43;2.90;;;12.60;93.00;;;13.56;58.69;99394.63;4946073;28;109013;-70
2022/10/09 06:49:02;;;;;;;3.80;3.10;;;12.70;92.70;;;13.65;58.60;99398.28;4962931;28;124495;-75
2022/10/09 06:51:30;;;;;;;4.40;2.87;;;12.80;92.70;;;13.76;58.55;99396.88;4948112;28;123272;-77
2022/10/09 06:54:00;;;;;;;5.07;2.90;;;12.90;92.60;;;13.88;58.34;99399.03;4956204;28;108755;-80
2022/10/09 06:56:29;;;;;;;4.00;2.90;;;13.00;92.50;;;13.99;58.04;99405.94;4958019;28;109577;-78
2022/10/09 06:58:58;;;;;;;4.87;3.07;;;13.20;92.40;;;14.13;57.84;99398.34;4954013;28;126160;-75
2022/10/09 07:01:29;;;;;;;4.47;3.43;;;14.20;92.80;;;14.29;57.66;99397.88;4965418;28;123631;-73
2022/10/09 07:03:59;;;;;;;3.73;2.93;;;13.90;92.50;;;14.35;56.94;99397.41;4973781;28;109575;-73
2022/10/09 07:06:29;;;;;;;5.37;3.57;;;13.50;92.00;;;14.36;56.17;99399.06;4960632;28;108949;-75
2022/10/09 07:09:02;;;;;;;8.70;3.40;;;13.50;91.50;;;14.28;55.85;99408.19;4972350;28;125157;-73
2022/10/09 07:11:33;;;;;;;6.20;3.20;;;13.50;91.10;;;14.22;56.05;99403.09;4967900;28;123586;-74
2022/10/09 07:14:04;;;;;;;6.20;3.00;;;13.50;91.10;;;14.22;55.88;99408.66;4973503;28;109185;-75
2022/10/09 07:16:37;;;;;;;6.80;3.80;;;13.60;91.10;;;14.21;55.73;99412.56;4967040;28;109758;-73
2022/10/09 07:19:09;;;;;;;5.93;3.13;;;13.50;91.00;;;14.17;55.61;99406.03;4966127;28;124279;-72
2022/10/09 07:21:39;;;;;;;4.63;3.00;;;13.40;90.80;;;14.10;55.75;99401.78;4971362;28;124024;-73
2022/10/09 07:24:06;;;;;;;4.80;3.47;;;13.40;90.80;;;14.10;55.60;99400.91;4971259;28;109514;-71
2022/10/09 07:26:37;;;;;;;4.07;3.10;;;13.40;90.80;;;14.12;55.50;99407.81;4974739;28;109118;-73
2022/10/09 07:29:07;;;;;;;6.10;3.00;;;13.40;90.70;;;14.14;55.39;99405.53;4970908;28;123970;-73
2022/10/09 07:31:33;;;;;;;4.40;3.13;;;13.50;90.70;;;14.17;55.64;99404.06;4969127;28;124015;-72
2022/10/09 07:34:00;;;;;;;4.10;2.97;;;13.50;90.70;;;14.19;55.35;99403.75;4969132;28;110138;-74
2022/10/09 07:36:27;;;;;;;8.90;3.40;;;13.50;90.60;;;14.19;55.41;99399.00;4969785;28;109145;-74
2022/10/09 07:38:57;;;;;;;4.33;2.70;;;13.50;90.60;;;14.24;55.58;99400.81;4967204;28;124278;-72
2022/10/09 07:41:27;;;;;;;3.80;2.97;;;13.50;90.60;;;14.28;55.28;99404.59;4962528;28;123988;-74
2022/10/09 07:43:53;;;;;;;6.63;3.20;;;13.60;90.60;;;14.32;55.28;99400.03;4960283;28;109420;-75
2022/10/09 07:46:24;;;;;;;8.20;4.27;;;13.60;90.50;;;14.30;55.25;99394.78;4973845;28;109016;-76
2022/10/09 07:48:51;;;;;;;4.93;3.20;;;13.60;90.40;;;14.30;55.31;99393.97;4957391;28;123171;-74
2022/10/09 07:51:21;;;;;;;4.00;3.33;;;13.60;90.40;;;14.30;55.30;99393.97;4973983;28;124124;-76
2022/10/09 07:53:48;;;;;;;5.70;3.60;;;13.60;90.50;;;14.31;55.28;99395.59;4970263;28;109148;-76
2022/10/09 07:56:18;;;;;;;4.00;3.07;;;14.10;90.70;;;14.33;55.26;99399.69;4961451;28;108342;-74
2022/10/09 07:58:52;;;;;;;6.50;2.90;;;13.80;90.60;;;14.36;55.24;99399.06;4971811;28;124071;-75
2022/10/09 08:01:20;;;;;;;5.00;2.70;;;13.70;90.60;;;14.41;55.28;99389.75;4953834;28;123596;-75
2022/10/09 08:03:48;;;;;;;7.10;3.00;;;13.70;90.50;;;14.47;54.99;99391.22;4958717;28;109115;-74
2022/10/09 08:06:16;;;;;;;3.57;2.93;;;13.80;90.40;;;14.47;54.67;99394.00;4965121;28;109745;-73
2022/10/09 08:08:42;;;;;;;6.07;3.43;;;14.00;90.30;;;14.49;54.89;99386.16;4948053;28;123662;-75
2022/10/09 08:11:14;;;;;;;4.30;2.90;;;13.80;90.30;;;14.53;54.73;99386.34;4960025;28;123822;-74
2022/10/09 08:13:42;;;;;;;5.00;3.20;;;13.80;90.20;;;14.57;54.71;99382.63;4953308;28;108598;-74
2022/10/09 08:16:10;;;;;;;5.87;2.90;;;13.90;90.20;;;14.61;54.46;99379.19;4952970;28;108808;-72
2022/10/09 08:18:37;;;;;;;4.57;3.47;;;13.90;90.20;;;14.66;54.61;99390.16;4949995;28;122658;-73
2022/10/09 08:21:10;;;;;;;6.90;3.83;;;13.90;90.20;;;14.68;54.62;99377.56;4958335;28;124135;-74
2022/10/09 08:23:37;;;;;;;13.60;3.73;;;14.50;90.40;;;14.70;54.13;99380.03;4954053;28;110195;-75
2022/10/09 08:26:11;;;;;;;4.40;2.43;;;14.40;90.10;;;14.66;53.97;99384.59;4958931;28;110073;-74
2022/10/09 08:28:37;;;;;;;7.63;3.40;;;13.90;89.50;;;14.63;53.90;99376.91;4952875;28;123997;-73
2022/10/09 08:31:15;;;;;;;7.33;3.23;;;13.90;89.40;;;14.65;54.13;99377.41;4953978;28;124171;-75
2022/10/09 08:33:42;;;;;;;7.60;3.93;;;14.30;89.90;;;14.69;54.13;99372.81;4956010;28;109487;-75
2022/10/09 08:36:11;;;;;;;7.20;3.30;;;14.00;89.60;;;14.70;53.97;99371.69;4968343;28;107997;-73
2022/10/09 08:38:37;;;;;;;8.87;2.90;;;14.10;89.40;;;14.75;53.95;99371.53;4955193;28;124048;-74
2022/10/09 08:41:23;;;;;;;5.97;3.20;;;14.10;89.50;;;14.82;54.02;99371.03;4952067;28;124040;-77
2022/10/09 08:44:04;;;;;;;4.30;2.90;;;14.10;89.60;;;14.89;55.18;99372.19;4964642;28;108721;-77
2022/10/09 08:47:04;;;;;;;3.53;2.53;;;14.20;90.30;;;14.99;54.26;99369.06;4962086;28;109307;-74
2022/10/09 08:49:55;;;;;;;4.57;2.93;;;14.30;90.10;;;15.08;54.53;99357.94;4966175;28;124033;-73
2022/10/09 08:52:51;;;;;;;5.40;2.90;;;14.70;90.30;;;15.18;53.91;99354.00;4962683;28;124394;-74
2022/10/09 08:55:34;;;;;;;6.00;2.90;;;14.50;89.80;;;15.23;53.97;99362.16;4948415;28;108210;-78
2022/10/09 08:58:04;;;;;;;5.17;3.03;;;14.60;89.80;;;15.30;53.55;99359.69;4957313;28;108042;-74
2022/10/09 09:00:54;;;;;;;7.77;2.97;;;14.60;89.40;;;15.35;53.17;99362.31;4951912;28;124421;-76
2022/10/09 09:03:35;;;;;;;6.00;3.17;;;14.70;89.00;;;15.42;52.84;99357.06;4946332;28;122534;-74
2022/10/09 09:06:29;;;;;;;6.40;3.37;;;14.70;88.70;;;15.43;52.49;99353.13;4966380;28;109216;-75
2022/10/09 09:09:18;;;;;;;5.33;2.77;;;14.80;88.20;;;15.49;52.47;99347.38;4962004;28;109462;-75
2022/10/09 09:12:21;;;;;;;5.67;3.20;;;14.80;88.10;;;15.50;52.15;99346.22;4967513;28;124117;-79
2022/10/09 09:15:17;;;;;;;3.57;2.63;;;14.80;87.50;;;15.52;52.28;99343.91;4961471;28;123963;-73
2022/10/09 09:17:52;;;;;;;6.73;2.83;;;14.90;87.60;;;15.59;52.07;99341.44;4954519;28;110054;-72
2022/10/09 09:20:29;;;;;;;4.70;2.53;;;15.00;87.50;;;15.64;52.03;99332.91;4966565;28;109730;-75
2022/10/09 09:23:00;;;;;;;3.60;2.50;;;15.00;87.00;;;15.68;51.39;99331.94;4968387;28;124300;-73
2022/10/09 09:25:32;;;;;;;5.30;2.80;;;15.00;86.70;;;15.70;51.25;99337.19;4972818;28;123145;-75
2022/10/09 09:28:12;;;;;;;4.50;2.40;;;15.10;86.20;;;15.72;50.70;99334.06;4971623;28;108952;-72
2022/10/09 09:30:56;;;;;;;5.60;2.90;;;15.20;85.50;;;15.72;50.68;99326.53;4959371;28;108185;-74
2022/10/09 09:33:33;;;;;;;3.63;2.03;;;15.10;85.40;;;15.77;50.22;99325.50;4969724;28;124101;-73
2022/10/09 09:36:30;;;;;;;4.60;2.80;;;15.20;85.10;;;15.79;50.30;99326.81;4965656;28;123424;-75
2022/10/09 09:38:57;;;;;;;8.03;3.33;;;15.20;84.70;;;15.86;50.52;99318.75;4964749;28;108385;-73
2022/10/09 09:41:24;;;;;;;8.37;4.77;;;15.30;85.00;;;15.94;50.14;99307.91;4960061;28;109098;-73
2022/10/09 09:43:51;;;;;;;6.63;3.43;;;15.30;84.90;;;15.99;49.96;99308.53;4962395;28;124768;-73
2022/10/09 09:46:22;;;;;;;8.57;3.37;;;15.40;84.30;;;16.05;50.11;99301.59;4975217;28;123408;-74
2022/10/09 09:48:49;;;;;;;7.33;2.80;;;16.10;85.20;;;16.14;49.71;99301.53;4957369;28;108913;-75
2022/10/09 09:51:24;;;;;;;8.47;2.83;;;15.50;84.50;;;16.24;49.47;99292.78;4959014;28;108110;-75
2022/10/09 09:54:00;;;;;;;3.40;2.10;;;15.60;84.40;;;16.32;48.98;99286.34;4952820;28;124328;-74
2022/10/09 09:56:39;;;;;;;5.87;2.00;;;15.70;83.80;;;16.40;47.74;99283.84;4951782;28;123520;-74
2022/10/09 09:59:07;;;;;;;4.50;1.97;;;15.80;81.50;;;16.46;46.64;99285.25;4950714;28;109507;-74
2022/10/09 10:01:34;;;;;;;4.33;2.20;;;17.30;81.70;;;16.52;46.90;99278.31;4953546;28;109492;-74
2022/10/09 10:04:03;;;;;;;3.70;1.90;;;15.90;80.20;;;16.61;47.44;99273.50;4955770;28;124455;-72
2022/10/09 10:06:34;;;;;;;3.87;2.30;;;16.00;80.90;;;16.67;47.35;99271.31;4960891;28;123939;-72
2022/10/09 10:09:12;;;;;;;3.17;1.93;;;16.10;81.00;;;16.74;47.37;99275.19;4955680;28;110052;-73
2022/10/09 10:11:49;;;;;;;5.60;2.00;;;16.10;81.10;;;16.81;47.29;99266.28;4955317;28;108832;-71
2022/10/09 10:14:16;;;;;;;7.03;1.90;;;16.20;80.90;;;16.90;47.29;99263.41;4959333;28;124462;-74
2022/10/09 10:16:49;;;;;;;3.10;1.80;;;16.30;81.00;;;17.00;47.15;99257.38;4961091;28;127525;-80
2022/10/09 10:19:34;;;;;;;4.33;2.13;;;16.40;80.80;;;17.10;46.98;99259.75;4965429;28;109428;-73
2022/10/09 10:22:04;;;;;;;6.83;2.00;;;16.50;80.60;;;17.19;46.51;99254.91;4952329;28;108992;-73
2022/10/09 10:24:45;;;;;;;3.77;1.80;;;16.60;79.90;;;17.30;46.26;99251.66;4955836;28;123465;-75
2022/10/09 10:27:21;;;;;;;5.30;2.70;;;16.70;79.80;;;17.40;45.78;99245.63;4965041;28;123604;-74
2022/10/09 10:29:52;;;;;;;3.20;2.00;;;16.90;79.20;;;17.49;45.46;99235.16;4955481;28;109169;-74
2022/10/09 10:32:50;;;;;;;3.73;2.20;;;16.90;78.80;;;17.60;45.34;99241.91;4967540;28;108898;-72